sensor_id;sensor_type;location;lat;lon;timestamp;temperature;humidity
21267;DHT22;10791;53.108;18.326;2024-02-26T00:01:25;2.40;99.90
21267;DHT22;10791;53.108;18.326;2024-02-26T00:06:32;2.30;99.90
21267;DHT22;10791;53.108;18.326;2024-02-26T00:11:39;2.30;99.90
21267;DHT22;10791;53.108;18.326;2024-02-26T00:16:42;2.30;99.90
21267;DHT22;10791;53.108;18.326;2024-02-26T00:21:45;2.20;99.90
21267;DHT22;10791;53.108;18.326;2024-02-26T00:26:48;2.10;99.90
21267;DHT22;10791;53.108;18.326;2024-02-26T00:31:56;2.00;99.90
21267;DHT22;10791;53.108;18.326;2024-02-26T00:36:59;1.90;99.90
21267;DHT22;10791;53.108;18.326;2024-02-26T00:42:02;1.90;99.90
21267;DHT22;10791;53.108;18.326;2024-02-26T00:47:06;1.80;99.90
21267;DHT22;10791;53.108;18.326;2024-02-26T00:52:09;1.80;99.90
21267;DHT22;10791;53.108;18.326;2024-02-26T00:57:12;1.80;99.90
21267;DHT22;10791;53.108;18.326;2024-02-26T01:02:15;1.70;99.90
21267;DHT22;10791;53.108;18.326;2024-02-26T01:07:19;1.70;99.90
21267;DHT22;10791;53.108;18.326;2024-02-26T01:12:22;1.70;99.90
21267;DHT22;10791;53.108;18.326;2024-02-26T01:17:25;1.70;99.90
21267;DHT22;10791;53.108;18.326;2024-02-26T01:22:28;1.70;99.90
21267;DHT22;10791;53.108;18.326;2024-02-26T01:27:32;1.60;99.90
21267;DHT22;10791;53.108;18.326;2024-02-26T01:32:35;1.60;99.90
21267;DHT22;10791;53.108;18.326;2024-02-26T01:37:39;1.60;99.90
21267;DHT22;10791;53.108;18.326;2024-02-26T01:42:42;1.60;99.90
21267;DHT22;10791;53.108;18.326;2024-02-26T01:47:45;1.60;99.90
21267;DHT22;10791;53.108;18.326;2024-02-26T01:52:50;1.50;99.90
21267;DHT22;10791;53.108;18.326;2024-02-26T01:57:53;1.40;99.90
21267;DHT22;10791;53.108;18.326;2024-02-26T02:02:57;1.40;99.90
21267;DHT22;10791;53.108;18.326;2024-02-26T02:08:00;1.30;99.90
21267;DHT22;10791;53.108;18.326;2024-02-26T02:13:03;1.20;99.90
21267;DHT22;10791;53.108;18.326;2024-02-26T02:18:07;1.20;99.90
21267;DHT22;10791;53.108;18.326;2024-02-26T02:23:10;1.20;99.90
21267;DHT22;10791;53.108;18.326;2024-02-26T02:28:13;1.20;99.90
21267;DHT22;10791;53.108;18.326;2024-02-26T02:33:17;1.10;99.90
21267;DHT22;10791;53.108;18.326;2024-02-26T02:38:20;1.10;99.90
21267;DHT22;10791;53.108;18.326;2024-02-26T02:43:23;1.00;99.90
21267;DHT22;10791;53.108;18.326;2024-02-26T02:48:27;1.00;99.90
21267;DHT22;10791;53.108;18.326;2024-02-26T02:53:30;1.00;99.90
21267;DHT22;10791;53.108;18.326;2024-02-26T02:58:33;1.00;99.90
21267;DHT22;10791;53.108;18.326;2024-02-26T03:03:37;0.90;99.90
21267;DHT22;10791;53.108;18.326;2024-02-26T03:08:40;0.90;99.90
21267;DHT22;10791;53.108;18.326;2024-02-26T03:13:45;0.90;99.90
21267;DHT22;10791;53.108;18.326;2024-02-26T03:18:48;1.00;99.90
21267;DHT22;10791;53.108;18.326;2024-02-26T03:23:53;1.00;99.90
21267;DHT22;10791;53.108;18.326;2024-02-26T03:28:58;1.00;99.90
21267;DHT22;10791;53.108;18.326;2024-02-26T03:34:01;1.00;99.90
21267;DHT22;10791;53.108;18.326;2024-02-26T03:39:05;1.00;99.90
21267;DHT22;10791;53.108;18.326;2024-02-26T03:44:10;0.90;99.90
21267;DHT22;10791;53.108;18.326;2024-02-26T03:49:13;0.70;99.90
21267;DHT22;10791;53.108;18.326;2024-02-26T03:54:16;0.60;99.90
21267;DHT22;10791;53.108;18.326;2024-02-26T03:59:20;0.50;99.90
21267;DHT22;10791;53.108;18.326;2024-02-26T04:04:24;0.50;99.90
21267;DHT22;10791;53.108;18.326;2024-02-26T04:09:27;0.70;99.90
21267;DHT22;10791;53.108;18.326;2024-02-26T04:14:30;0.70;99.90
21267;DHT22;10791;53.108;18.326;2024-02-26T04:19:34;0.80;99.90
21267;DHT22;10791;53.108;18.326;2024-02-26T04:24:37;0.70;99.90
21267;DHT22;10791;53.108;18.326;2024-02-26T04:29:40;0.60;99.90
21267;DHT22;10791;53.108;18.326;2024-02-26T04:34:43;0.40;99.90
21267;DHT22;10791;53.108;18.326;2024-02-26T04:39:46;0.30;99.90
21267;DHT22;10791;53.108;18.326;2024-02-26T04:44:53;0.30;99.90
21267;DHT22;10791;53.108;18.326;2024-02-26T04:49:57;0.20;99.90
21267;DHT22;10791;53.108;18.326;2024-02-26T04:55:00;0.20;99.90
21267;DHT22;10791;53.108;18.326;2024-02-26T05:00:04;0.20;99.90
21267;DHT22;10791;53.108;18.326;2024-02-26T05:05:08;0.30;99.90
21267;DHT22;10791;53.108;18.326;2024-02-26T05:10:15;0.30;99.90
21267;DHT22;10791;53.108;18.326;2024-02-26T05:15:18;0.30;99.90
21267;DHT22;10791;53.108;18.326;2024-02-26T05:20:22;0.20;99.90
21267;DHT22;10791;53.108;18.326;2024-02-26T05:25:26;0.20;99.90
21267;DHT22;10791;53.108;18.326;2024-02-26T05:30:29;0.20;99.90
21267;DHT22;10791;53.108;18.326;2024-02-26T05:35:33;0.10;99.90
21267;DHT22;10791;53.108;18.326;2024-02-26T05:40:37;0.10;99.90
21267;DHT22;10791;53.108;18.326;2024-02-26T05:45:40;0.10;99.90
21267;DHT22;10791;53.108;18.326;2024-02-26T05:50:43;0.00;99.90
21267;DHT22;10791;53.108;18.326;2024-02-26T05:55:47;0.00;99.90
21267;DHT22;10791;53.108;18.326;2024-02-26T06:00:50;0.00;99.90
21267;DHT22;10791;53.108;18.326;2024-02-26T06:05:54;0.00;99.90
21267;DHT22;10791;53.108;18.326;2024-02-26T06:10:57;0.00;99.90
21267;DHT22;10791;53.108;18.326;2024-02-26T06:16:01;0.00;99.90
21267;DHT22;10791;53.108;18.326;2024-02-26T06:21:04;0.10;99.90
21267;DHT22;10791;53.108;18.326;2024-02-26T06:26:11;0.10;99.90
21267;DHT22;10791;53.108;18.326;2024-02-26T06:31:15;0.10;99.90
21267;DHT22;10791;53.108;18.326;2024-02-26T06:36:18;0.10;99.90
21267;DHT22;10791;53.108;18.326;2024-02-26T06:41:22;0.20;99.90
21267;DHT22;10791;53.108;18.326;2024-02-26T06:46:30;0.20;99.90
21267;DHT22;10791;53.108;18.326;2024-02-26T06:51:33;0.30;99.90
21267;DHT22;10791;53.108;18.326;2024-02-26T06:56:37;0.40;99.90
21267;DHT22;10791;53.108;18.326;2024-02-26T07:01:41;0.50;99.90
21267;DHT22;10791;53.108;18.326;2024-02-26T07:06:45;0.60;99.90
21267;DHT22;10791;53.108;18.326;2024-02-26T07:11:49;0.70;99.90
21267;DHT22;10791;53.108;18.326;2024-02-26T07:16:53;0.80;99.90
21267;DHT22;10791;53.108;18.326;2024-02-26T07:21:56;1.00;99.90
21267;DHT22;10791;53.108;18.326;2024-02-26T07:27:02;1.10;99.90
21267;DHT22;10791;53.108;18.326;2024-02-26T07:35:48;1.40;99.90
21267;DHT22;10791;53.108;18.326;2024-02-26T07:40:51;1.50;99.90
21267;DHT22;10791;53.108;18.326;2024-02-26T07:46:04;1.70;99.90
21267;DHT22;10791;53.108;18.326;2024-02-26T07:51:07;1.90;99.90
21267;DHT22;10791;53.108;18.326;2024-02-26T07:56:10;2.10;99.90
21267;DHT22;10791;53.108;18.326;2024-02-26T08:01:14;2.30;99.90
21267;DHT22;10791;53.108;18.326;2024-02-26T08:06:18;2.50;99.90
21267;DHT22;10791;53.108;18.326;2024-02-26T08:11:22;2.70;99.90
21267;DHT22;10791;53.108;18.326;2024-02-26T08:16:25;2.80;99.90
21267;DHT22;10791;53.108;18.326;2024-02-26T08:21:29;3.10;99.90
21267;DHT22;10791;53.108;18.326;2024-02-26T08:26:33;3.40;99.90
21267;DHT22;10791;53.108;18.326;2024-02-26T08:31:36;3.70;99.90
21267;DHT22;10791;53.108;18.326;2024-02-26T08:36:40;3.90;99.90
21267;DHT22;10791;53.108;18.326;2024-02-26T08:41:44;4.00;99.90
21267;DHT22;10791;53.108;18.326;2024-02-26T08:46:48;4.30;99.90
21267;DHT22;10791;53.108;18.326;2024-02-26T08:51:51;4.50;99.90
21267;DHT22;10791;53.108;18.326;2024-02-26T08:56:55;4.70;99.90
21267;DHT22;10791;53.108;18.326;2024-02-26T09:01:58;5.00;99.90
21267;DHT22;10791;53.108;18.326;2024-02-26T09:07:02;5.20;99.90
21267;DHT22;10791;53.108;18.326;2024-02-26T09:12:05;5.40;99.90
21267;DHT22;10791;53.108;18.326;2024-02-26T09:17:09;5.50;99.90
21267;DHT22;10791;53.108;18.326;2024-02-26T09:22:12;5.80;99.90
21267;DHT22;10791;53.108;18.326;2024-02-26T09:27:19;6.00;99.90
21267;DHT22;10791;53.108;18.326;2024-02-26T09:32:22;6.40;99.90
21267;DHT22;10791;53.108;18.326;2024-02-26T09:37:27;6.60;99.90
21267;DHT22;10791;53.108;18.326;2024-02-26T09:42:31;7.10;99.90
21267;DHT22;10791;53.108;18.326;2024-02-26T09:47:36;7.40;99.90
21267;DHT22;10791;53.108;18.326;2024-02-26T09:52:41;7.70;99.90
21267;DHT22;10791;53.108;18.326;2024-02-26T09:57:46;7.90;99.90
21267;DHT22;10791;53.108;18.326;2024-02-26T10:02:50;8.30;99.90
21267;DHT22;10791;53.108;18.326;2024-02-26T10:07:55;8.50;99.90
21267;DHT22;10791;53.108;18.326;2024-02-26T10:13:01;8.80;99.90
21267;DHT22;10791;53.108;18.326;2024-02-26T10:18:05;9.00;99.90
21267;DHT22;10791;53.108;18.326;2024-02-26T10:23:10;9.20;99.90
21267;DHT22;10791;53.108;18.326;2024-02-26T10:28:14;9.50;99.90
21267;DHT22;10791;53.108;18.326;2024-02-26T10:33:18;9.80;99.90
21267;DHT22;10791;53.108;18.326;2024-02-26T10:38:22;10.10;99.90
21267;DHT22;10791;53.108;18.326;2024-02-26T10:43:26;10.30;99.90
21267;DHT22;10791;53.108;18.326;2024-02-26T10:48:30;10.50;99.90
21267;DHT22;10791;53.108;18.326;2024-02-26T10:53:35;10.60;99.90
21267;DHT22;10791;53.108;18.326;2024-02-26T10:58:40;10.40;99.90
21267;DHT22;10791;53.108;18.326;2024-02-26T11:03:44;10.50;99.90
21267;DHT22;10791;53.108;18.326;2024-02-26T11:08:51;10.60;99.90
21267;DHT22;10791;53.108;18.326;2024-02-26T11:13:54;10.80;99.90
21267;DHT22;10791;53.108;18.326;2024-02-26T11:18:59;10.90;99.90
21267;DHT22;10791;53.108;18.326;2024-02-26T11:24:08;11.00;99.90
21267;DHT22;10791;53.108;18.326;2024-02-26T11:29:14;11.20;99.90
21267;DHT22;10791;53.108;18.326;2024-02-26T11:34:19;11.40;99.90
21267;DHT22;10791;53.108;18.326;2024-02-26T11:39:23;11.50;99.90
21267;DHT22;10791;53.108;18.326;2024-02-26T11:44:30;11.70;99.90
21267;DHT22;10791;53.108;18.326;2024-02-26T11:49:34;12.00;99.90
21267;DHT22;10791;53.108;18.326;2024-02-26T11:54:56;12.20;99.90
21267;DHT22;10791;53.108;18.326;2024-02-26T12:00:15;12.40;99.90
21267;DHT22;10791;53.108;18.326;2024-02-26T12:05:27;12.50;99.90
21267;DHT22;10791;53.108;18.326;2024-02-26T12:10:38;12.50;99.90
21267;DHT22;10791;53.108;18.326;2024-02-26T12:16:01;12.60;99.90
21267;DHT22;10791;53.108;18.326;2024-02-26T12:21:04;12.60;99.90
21267;DHT22;10791;53.108;18.326;2024-02-26T12:26:08;12.80;99.90
21267;DHT22;10791;53.108;18.326;2024-02-26T12:31:12;13.10;99.90
21267;DHT22;10791;53.108;18.326;2024-02-26T12:36:17;13.30;99.90
21267;DHT22;10791;53.108;18.326;2024-02-26T12:41:22;13.40;99.90
21267;DHT22;10791;53.108;18.326;2024-02-26T12:46:25;13.40;99.90
21267;DHT22;10791;53.108;18.326;2024-02-26T12:51:29;13.30;99.90
21267;DHT22;10791;53.108;18.326;2024-02-26T12:56:32;13.20;99.90
21267;DHT22;10791;53.108;18.326;2024-02-26T13:01:36;13.30;99.90
21267;DHT22;10791;53.108;18.326;2024-02-26T13:06:40;13.30;99.90
21267;DHT22;10791;53.108;18.326;2024-02-26T13:11:43;13.30;99.90
21267;DHT22;10791;53.108;18.326;2024-02-26T13:16:57;13.40;99.90
21267;DHT22;10791;53.108;18.326;2024-02-26T13:22:05;13.40;99.90
21267;DHT22;10791;53.108;18.326;2024-02-26T13:27:11;13.60;99.90
21267;DHT22;10791;53.108;18.326;2024-02-26T13:32:16;13.60;99.90
21267;DHT22;10791;53.108;18.326;2024-02-26T13:37:19;13.50;99.90
21267;DHT22;10791;53.108;18.326;2024-02-26T13:42:22;13.50;99.90
21267;DHT22;10791;53.108;18.326;2024-02-26T13:47:26;13.40;99.90
21267;DHT22;10791;53.108;18.326;2024-02-26T13:52:29;13.30;99.90
21267;DHT22;10791;53.108;18.326;2024-02-26T13:57:34;13.40;99.90
21267;DHT22;10791;53.108;18.326;2024-02-26T14:02:37;13.40;99.90
21267;DHT22;10791;53.108;18.326;2024-02-26T14:07:42;13.40;99.90
21267;DHT22;10791;53.108;18.326;2024-02-26T14:12:45;13.30;99.90
21267;DHT22;10791;53.108;18.326;2024-02-26T14:17:49;13.40;99.90
21267;DHT22;10791;53.108;18.326;2024-02-26T14:22:57;13.30;99.90
21267;DHT22;10791;53.108;18.326;2024-02-26T14:28:01;13.10;99.90
21267;DHT22;10791;53.108;18.326;2024-02-26T14:33:04;13.00;99.90
21267;DHT22;10791;53.108;18.326;2024-02-26T14:38:08;12.80;99.90
21267;DHT22;10791;53.108;18.326;2024-02-26T14:43:11;12.60;99.90
21267;DHT22;10791;53.108;18.326;2024-02-26T14:48:15;12.60;99.90
21267;DHT22;10791;53.108;18.326;2024-02-26T14:53:19;12.40;99.90
21267;DHT22;10791;53.108;18.326;2024-02-26T14:58:22;12.30;99.90
21267;DHT22;10791;53.108;18.326;2024-02-26T15:03:25;12.20;99.90
21267;DHT22;10791;53.108;18.326;2024-02-26T15:08:29;12.10;99.90
21267;DHT22;10791;53.108;18.326;2024-02-26T15:13:33;12.00;99.90
21267;DHT22;10791;53.108;18.326;2024-02-26T15:18:37;11.90;99.90
21267;DHT22;10791;53.108;18.326;2024-02-26T15:23:43;11.80;99.90
21267;DHT22;10791;53.108;18.326;2024-02-26T15:29:06;11.60;99.90
21267;DHT22;10791;53.108;18.326;2024-02-26T15:34:11;11.50;99.90
21267;DHT22;10791;53.108;18.326;2024-02-26T15:39:15;11.40;99.90
21267;DHT22;10791;53.108;18.326;2024-02-26T15:44:18;11.30;99.90
21267;DHT22;10791;53.108;18.326;2024-02-26T15:49:21;11.20;99.90
21267;DHT22;10791;53.108;18.326;2024-02-26T15:54:25;11.10;99.90
21267;DHT22;10791;53.108;18.326;2024-02-26T15:59:28;11.00;99.90
21267;DHT22;10791;53.108;18.326;2024-02-26T16:04:31;10.90;99.90
21267;DHT22;10791;53.108;18.326;2024-02-26T16:09:35;10.80;99.90
21267;DHT22;10791;53.108;18.326;2024-02-26T16:14:51;10.60;99.90
21267;DHT22;10791;53.108;18.326;2024-02-26T16:19:55;10.30;99.90
21267;DHT22;10791;53.108;18.326;2024-02-26T16:24:59;10.20;99.90
21267;DHT22;10791;53.108;18.326;2024-02-26T16:30:04;10.10;99.90
21267;DHT22;10791;53.108;18.326;2024-02-26T16:35:08;9.90;99.90
21267;DHT22;10791;53.108;18.326;2024-02-26T16:40:14;9.90;99.90
21267;DHT22;10791;53.108;18.326;2024-02-26T16:45:20;9.80;99.90
21267;DHT22;10791;53.108;18.326;2024-02-26T16:50:24;9.70;99.90
21267;DHT22;10791;53.108;18.326;2024-02-26T16:55:29;9.60;99.90
21267;DHT22;10791;53.108;18.326;2024-02-26T17:00:32;9.50;99.90
21267;DHT22;10791;53.108;18.326;2024-02-26T17:05:36;9.40;99.90
21267;DHT22;10791;53.108;18.326;2024-02-26T17:10:39;9.50;99.90
21267;DHT22;10791;53.108;18.326;2024-02-26T17:15:42;9.50;99.90
21267;DHT22;10791;53.108;18.326;2024-02-26T17:20:45;9.50;99.90
21267;DHT22;10791;53.108;18.326;2024-02-26T17:25:48;9.50;99.90
21267;DHT22;10791;53.108;18.326;2024-02-26T17:30:52;9.50;99.90
21267;DHT22;10791;53.108;18.326;2024-02-26T17:35:55;9.50;99.90
21267;DHT22;10791;53.108;18.326;2024-02-26T17:40:58;9.50;99.90
21267;DHT22;10791;53.108;18.326;2024-02-26T17:46:02;9.50;99.90
21267;DHT22;10791;53.108;18.326;2024-02-26T17:51:05;9.50;99.90
21267;DHT22;10791;53.108;18.326;2024-02-26T17:56:10;9.50;99.90
21267;DHT22;10791;53.108;18.326;2024-02-26T18:01:13;9.40;99.90
21267;DHT22;10791;53.108;18.326;2024-02-26T18:06:16;9.40;99.90
21267;DHT22;10791;53.108;18.326;2024-02-26T18:11:20;9.40;99.90
21267;DHT22;10791;53.108;18.326;2024-02-26T18:16:24;9.30;99.90
21267;DHT22;10791;53.108;18.326;2024-02-26T18:21:27;9.20;99.90
21267;DHT22;10791;53.108;18.326;2024-02-26T18:26:31;9.20;99.90
21267;DHT22;10791;53.108;18.326;2024-02-26T18:31:34;9.10;99.90
21267;DHT22;10791;53.108;18.326;2024-02-26T18:36:42;9.10;99.90
21267;DHT22;10791;53.108;18.326;2024-02-26T18:41:46;9.10;99.90
21267;DHT22;10791;53.108;18.326;2024-02-26T18:46:49;9.00;99.90
21267;DHT22;10791;53.108;18.326;2024-02-26T18:51:52;9.00;99.90
21267;DHT22;10791;53.108;18.326;2024-02-26T18:56:55;9.00;99.90
21267;DHT22;10791;53.108;18.326;2024-02-26T19:01:59;8.90;99.90
21267;DHT22;10791;53.108;18.326;2024-02-26T19:07:03;8.90;99.90
21267;DHT22;10791;53.108;18.326;2024-02-26T19:12:08;8.80;99.90
21267;DHT22;10791;53.108;18.326;2024-02-26T19:17:12;8.80;99.90
21267;DHT22;10791;53.108;18.326;2024-02-26T19:22:17;8.80;99.90
21267;DHT22;10791;53.108;18.326;2024-02-26T19:27:21;8.80;99.90
21267;DHT22;10791;53.108;18.326;2024-02-26T19:32:26;8.80;99.90
21267;DHT22;10791;53.108;18.326;2024-02-26T19:37:32;8.70;99.90
21267;DHT22;10791;53.108;18.326;2024-02-26T19:42:37;8.70;99.90
21267;DHT22;10791;53.108;18.326;2024-02-26T19:47:41;8.70;99.90
21267;DHT22;10791;53.108;18.326;2024-02-26T19:52:46;8.70;99.90
21267;DHT22;10791;53.108;18.326;2024-02-26T19:57:50;8.80;99.90
21267;DHT22;10791;53.108;18.326;2024-02-26T20:02:57;8.70;99.90
21267;DHT22;10791;53.108;18.326;2024-02-26T20:08:02;8.60;99.90
21267;DHT22;10791;53.108;18.326;2024-02-26T20:13:07;8.60;99.90
21267;DHT22;10791;53.108;18.326;2024-02-26T20:18:11;8.60;99.90
21267;DHT22;10791;53.108;18.326;2024-02-26T20:23:15;8.50;99.90
21267;DHT22;10791;53.108;18.326;2024-02-26T20:28:23;8.50;99.90
21267;DHT22;10791;53.108;18.326;2024-02-26T20:33:27;8.40;99.90
21267;DHT22;10791;53.108;18.326;2024-02-26T20:38:31;8.30;99.90
21267;DHT22;10791;53.108;18.326;2024-02-26T20:43:34;8.30;99.90
21267;DHT22;10791;53.108;18.326;2024-02-26T20:48:38;8.30;99.90
21267;DHT22;10791;53.108;18.326;2024-02-26T20:53:42;8.40;99.90
21267;DHT22;10791;53.108;18.326;2024-02-26T20:58:46;8.30;99.90
21267;DHT22;10791;53.108;18.326;2024-02-26T21:03:49;8.30;99.90
21267;DHT22;10791;53.108;18.326;2024-02-26T21:08:53;8.30;99.90
21267;DHT22;10791;53.108;18.326;2024-02-26T21:13:58;8.20;99.90
21267;DHT22;10791;53.108;18.326;2024-02-26T21:19:01;8.20;99.90
21267;DHT22;10791;53.108;18.326;2024-02-26T21:24:07;8.20;99.90
21267;DHT22;10791;53.108;18.326;2024-02-26T21:29:10;8.20;99.90
21267;DHT22;10791;53.108;18.326;2024-02-26T21:34:14;8.10;99.90
21267;DHT22;10791;53.108;18.326;2024-02-26T21:39:18;8.10;99.90
21267;DHT22;10791;53.108;18.326;2024-02-26T21:44:21;8.00;99.90
21267;DHT22;10791;53.108;18.326;2024-02-26T21:49:25;8.00;99.90
21267;DHT22;10791;53.108;18.326;2024-02-26T21:54:32;8.00;99.90
21267;DHT22;10791;53.108;18.326;2024-02-26T21:59:36;7.90;99.90
21267;DHT22;10791;53.108;18.326;2024-02-26T22:04:40;7.90;99.90
21267;DHT22;10791;53.108;18.326;2024-02-26T22:09:44;7.90;99.90
21267;DHT22;10791;53.108;18.326;2024-02-26T22:14:47;7.80;99.90
21267;DHT22;10791;53.108;18.326;2024-02-26T22:19:50;7.70;99.90
21267;DHT22;10791;53.108;18.326;2024-02-26T22:24:53;7.60;99.90
21267;DHT22;10791;53.108;18.326;2024-02-26T22:29:56;7.80;99.90
21267;DHT22;10791;53.108;18.326;2024-02-26T22:34:59;7.70;99.90
21267;DHT22;10791;53.108;18.326;2024-02-26T22:40:02;7.60;99.90
21267;DHT22;10791;53.108;18.326;2024-02-26T22:45:07;7.70;99.90
21267;DHT22;10791;53.108;18.326;2024-02-26T22:50:10;7.70;99.90
21267;DHT22;10791;53.108;18.326;2024-02-26T22:55:13;7.60;99.90
21267;DHT22;10791;53.108;18.326;2024-02-26T23:00:16;7.60;99.90
21267;DHT22;10791;53.108;18.326;2024-02-26T23:05:36;7.70;99.90
21267;DHT22;10791;53.108;18.326;2024-02-26T23:10:39;7.70;99.90
21267;DHT22;10791;53.108;18.326;2024-02-26T23:15:42;7.70;99.90
21267;DHT22;10791;53.108;18.326;2024-02-26T23:20:45;7.60;99.90
21267;DHT22;10791;53.108;18.326;2024-02-26T23:25:48;7.70;99.90
21267;DHT22;10791;53.108;18.326;2024-02-26T23:30:51;7.80;99.90
21267;DHT22;10791;53.108;18.326;2024-02-26T23:35:54;7.90;99.90
21267;DHT22;10791;53.108;18.326;2024-02-26T23:40:57;7.80;99.90
21267;DHT22;10791;53.108;18.326;2024-02-26T23:46:00;7.90;99.90
21267;DHT22;10791;53.108;18.326;2024-02-26T23:51:03;7.90;99.90
21267;DHT22;10791;53.108;18.326;2024-02-26T23:56:06;7.80;99.90
